createdAt,value
2018-01-23T07:05:27.378Z,67.00
2018-01-23T07:11:31.427Z,66.80
2018-01-23T07:17:35.197Z,66.30
2018-01-23T07:23:38.561Z,67.00
2018-01-23T07:29:42.006Z,67.80
2018-01-23T07:35:45.616Z,67.90
2018-01-23T07:41:49.343Z,66.90
2018-01-23T07:47:52.763Z,66.70
2018-01-23T07:53:56.130Z,67.00
2018-01-23T07:59:59.429Z,66.70
2018-01-23T08:06:03.479Z,67.10
2018-01-23T08:12:06.888Z,67.10
2018-01-23T08:18:10.603Z,66.40
2018-01-23T08:24:14.717Z,65.90
2018-01-23T08:30:19.069Z,65.50
2018-01-23T08:36:22.349Z,64.70
2018-01-23T08:42:26.101Z,65.40
2018-01-23T08:48:29.397Z,66.00
2018-01-23T08:54:34.135Z,65.90
2018-01-23T09:00:37.939Z,65.70
2018-01-23T09:06:42.246Z,65.20
2018-01-23T09:12:45.599Z,64.50
2018-01-23T09:18:50.085Z,64.70
2018-01-23T09:24:54.102Z,64.70
2018-01-23T09:30:58.202Z,65.00
2018-01-23T09:37:01.586Z,64.90
2018-01-23T09:43:05.055Z,65.00
2018-01-23T09:49:08.439Z,65.20
2018-01-23T09:55:11.891Z,65.20
2018-01-23T10:01:15.373Z,64.70
2018-01-23T10:07:19.525Z,65.40
2018-01-23T10:13:22.968Z,65.00
2018-01-23T10:19:26.741Z,66.00
2018-01-23T10:25:30.078Z,66.40
2018-01-23T10:31:33.570Z,64.10
2018-01-23T10:37:36.873Z,63.80
2018-01-23T10:43:40.329Z,64.40
2018-01-23T10:49:44.376Z,65.70
2018-01-23T10:55:47.850Z,64.50
2018-01-23T11:01:51.403Z,64.30
2018-01-23T11:07:55.399Z,64.50
2018-01-23T11:13:59.151Z,64.40
2018-01-23T11:20:02.637Z,63.40
2018-01-23T11:26:06.531Z,63.60
2018-01-23T11:32:11.098Z,62.10
2018-01-23T11:38:14.455Z,62.10
2018-01-23T11:44:17.764Z,62.00
2018-01-23T11:50:21.483Z,61.90
2018-01-23T11:56:25.370Z,62.40
2018-01-23T12:02:28.943Z,62.20
2018-01-23T12:08:33.072Z,62.00
2018-01-23T12:14:37.314Z,61.50
2018-01-23T12:20:40.736Z,61.50
2018-01-23T12:26:45.137Z,59.80
2018-01-23T12:32:50.330Z,61.00
2018-01-23T12:38:53.822Z,60.90
2018-01-23T12:44:58.220Z,61.40
2018-01-23T12:51:01.922Z,61.30
2018-01-23T12:57:05.646Z,61.50
2018-01-23T13:03:09.208Z,61.10
2018-01-23T13:09:12.550Z,61.70
2018-01-23T13:15:15.854Z,61.60
2018-01-23T13:21:19.108Z,61.30
2018-01-23T13:27:23.136Z,60.90
2018-01-23T13:33:26.800Z,60.30
2018-01-23T13:39:30.162Z,60.10
2018-01-23T13:45:33.581Z,60.00
2018-01-23T13:51:37.075Z,60.70
2018-01-23T13:57:40.752Z,60.30
2018-01-23T14:03:44.479Z,59.20
2018-01-23T14:09:48.007Z,59.80
2018-01-23T14:15:52.298Z,59.30
2018-01-23T14:28:24.289Z,63.40
2018-01-23T14:34:29.226Z,63.50
2018-01-23T14:40:33.675Z,63.40
2018-01-23T14:46:37.634Z,63.50
2018-01-23T14:52:41.849Z,63.20
2018-01-23T14:58:45.373Z,62.50
2018-01-23T15:04:50.424Z,63.20
2018-01-23T15:10:54.053Z,62.30
2018-01-23T15:16:58.141Z,62.90
2018-01-23T15:23:01.727Z,63.10
2018-01-23T15:29:05.611Z,64.60
2018-01-23T15:35:09.240Z,63.50
2018-01-23T15:41:12.655Z,62.30
2018-01-23T15:47:17.128Z,62.60
2018-01-23T15:53:20.810Z,62.40
2018-01-23T15:59:24.502Z,62.10
2018-01-23T16:05:29.232Z,61.60
2018-01-23T16:11:32.897Z,61.50
2018-01-23T16:17:36.274Z,61.40
2018-01-23T16:23:39.858Z,62.40
2018-01-23T16:29:43.430Z,61.70
2018-01-23T16:35:47.798Z,63.80
2018-01-23T16:41:51.202Z,63.80
2018-01-23T16:47:55.729Z,60.70
2018-01-23T16:53:59.364Z,60.60
2018-01-23T17:00:02.989Z,62.60
2018-01-23T17:06:06.449Z,63.60
2018-01-23T17:12:09.849Z,62.30
2018-01-23T17:18:13.483Z,62.70
2018-01-23T17:24:17.029Z,62.80
2018-01-23T17:30:21.218Z,60.00
2018-01-23T17:36:24.866Z,60.00
2018-01-23T17:42:28.290Z,59.70
2018-01-23T17:48:32.488Z,60.80
2018-01-23T17:54:35.802Z,60.80
2018-01-23T18:00:39.229Z,60.70
2018-01-23T18:06:42.677Z,60.90
2018-01-23T18:12:46.034Z,59.90
2018-01-23T18:18:49.405Z,59.60
2018-01-23T18:24:52.830Z,60.40
2018-01-23T18:30:56.326Z,60.60
2018-01-23T18:36:59.921Z,60.60
2018-01-23T18:43:03.273Z,61.80
2018-01-23T18:49:06.790Z,63.00
2018-01-23T18:55:10.376Z,63.40
2018-01-23T19:01:13.885Z,63.10
2018-01-23T19:07:27.148Z,59.50
2018-01-23T19:13:31.456Z,60.10
2018-01-23T19:19:34.938Z,60.00
2018-01-23T19:25:38.317Z,60.50
2018-01-23T19:31:41.717Z,60.10
2018-01-23T19:37:45.742Z,60.00
2018-01-23T19:43:49.369Z,60.90
2018-01-23T19:49:52.682Z,61.40
2018-01-23T19:55:56.365Z,61.70
2018-01-23T20:01:59.749Z,61.50
2018-01-23T20:08:03.049Z,60.50
2018-01-23T20:14:06.546Z,61.50
2018-01-23T20:20:10.750Z,62.00
2018-01-23T20:26:14.053Z,62.60
2018-01-23T20:32:17.294Z,61.00
2018-01-23T20:38:20.865Z,61.30
2018-01-23T20:44:24.137Z,61.50
2018-01-23T20:50:28.168Z,61.80
2018-01-23T20:56:33.147Z,63.20
2018-01-23T21:02:37.142Z,63.20
2018-01-23T21:08:41.478Z,64.10
2018-01-23T21:14:45.550Z,62.90
2018-01-23T21:20:49.715Z,63.50
2018-01-23T21:26:54.100Z,63.40
2018-01-23T21:32:57.452Z,63.40
2018-01-23T21:39:01.381Z,63.40
2018-01-23T21:45:06.159Z,64.50
2018-01-23T21:51:09.989Z,64.40
2018-01-23T21:57:13.931Z,64.70
2018-01-23T22:03:17.994Z,65.70
2018-01-23T22:09:21.810Z,66.20
2018-01-23T22:15:26.006Z,66.30
2018-01-23T22:21:29.826Z,66.90
2018-01-23T22:27:33.880Z,66.30
2018-01-23T22:33:37.830Z,66.10
2018-01-23T22:39:42.781Z,67.00
2018-01-23T22:45:47.029Z,67.00
2018-01-23T22:51:51.273Z,66.90
2018-01-23T22:57:55.324Z,67.40
2018-01-23T23:03:59.389Z,67.50
2018-01-23T23:10:04.184Z,69.50
2018-01-23T23:16:08.246Z,69.50
2018-01-23T23:22:13.146Z,69.20
2018-01-23T23:28:17.067Z,69.10
2018-01-23T23:34:21.694Z,68.40
2018-01-23T23:40:26.370Z,67.50
2018-01-23T23:46:30.386Z,67.40
2018-01-23T23:52:34.594Z,67.80
2018-01-23T23:58:38.881Z,67.80
